createdAt,value
2022-12-11T00:00:59.675Z,0.03
2022-12-11T00:03:01.080Z,0.04
2022-12-11T00:05:02.584Z,0.03
2022-12-11T00:07:03.963Z,0.02
2022-12-11T00:09:05.433Z,0.06
2022-12-11T00:11:12.582Z,0.02
2022-12-11T00:13:13.976Z,-0.03
2022-12-11T00:15:15.572Z,-0.01
2022-12-11T00:17:16.911Z,0.03
2022-12-11T00:19:18.316Z,0.05
2022-12-11T00:21:19.705Z,0.00
2022-12-11T00:23:21.164Z,0.00
2022-12-11T00:25:22.512Z,0.04
2022-12-11T00:27:24.221Z,-0.01
2022-12-11T00:29:27.475Z,0.01
2022-12-11T00:31:29.835Z,-0.04
2022-12-11T00:33:31.590Z,0.03
2022-12-11T00:35:32.968Z,-0.03
2022-12-11T00:37:34.448Z,0.00
2022-12-11T00:39:37.447Z,-0.05
2022-12-11T00:41:38.803Z,-0.02
2022-12-11T00:43:40.523Z,0.02
2022-12-11T00:45:44.696Z,-0.01
2022-12-11T00:47:46.209Z,-0.02
2022-12-11T00:49:49.967Z,-0.07
2022-12-11T00:51:51.799Z,-0.14
2022-12-11T00:53:53.482Z,-0.16
2022-12-11T00:55:54.916Z,-0.17
2022-12-11T00:57:58.261Z,-0.29
2022-12-11T00:59:59.661Z,-0.29
2022-12-11T01:02:00.996Z,-0.21
2022-12-11T01:04:02.510Z,-0.19
2022-12-11T01:06:04.938Z,-0.21
2022-12-11T01:08:06.602Z,-0.36
2022-12-11T01:10:27.596Z,-0.27
2022-12-11T01:12:29.133Z,-0.27
2022-12-11T01:14:30.502Z,-0.24
2022-12-11T01:16:32.532Z,-0.28
2022-12-11T01:18:33.944Z,-0.31
2022-12-11T01:20:37.187Z,-0.28
2022-12-11T01:22:39.412Z,-0.29
2022-12-11T01:24:40.816Z,-0.29
2022-12-11T01:26:42.185Z,-0.34
2022-12-11T01:28:44.354Z,-0.38
2022-12-11T01:30:45.985Z,-0.31
2022-12-11T01:32:47.482Z,-0.40
2022-12-11T01:34:48.998Z,-0.50
2022-12-11T01:36:52.329Z,-0.43
2022-12-11T01:38:54.364Z,-0.47
2022-12-11T01:40:55.735Z,-0.41
2022-12-11T01:42:57.146Z,-0.47
2022-12-11T01:45:27.291Z,-0.36
2022-12-11T01:47:28.838Z,-0.33
2022-12-11T01:49:30.272Z,-0.36
2022-12-11T01:51:35.768Z,-0.37
2022-12-11T01:53:42.449Z,-0.37
2022-12-11T01:55:45.000Z,-0.38
2022-12-11T01:57:50.443Z,-0.33
2022-12-11T01:59:51.885Z,-0.34
2022-12-11T02:02:30.020Z,-0.30
2022-12-11T02:04:34.767Z,-0.33
2022-12-11T02:06:46.862Z,-0.37
2022-12-11T02:08:48.304Z,-0.34
2022-12-11T02:11:17.644Z,-0.36
2022-12-11T02:13:38.306Z,-0.39
2022-12-11T02:15:51.427Z,-0.44
2022-12-11T02:17:55.791Z,-0.40
2022-12-11T02:19:57.088Z,-0.41
2022-12-11T02:22:02.732Z,-0.32
2022-12-11T02:24:26.495Z,-0.35
2022-12-11T02:26:51.420Z,-0.36
2022-12-11T02:28:58.003Z,-0.30
2022-12-11T02:31:05.422Z,-0.29
2022-12-11T02:33:09.582Z,-0.31
2022-12-11T02:35:23.671Z,-0.26
2022-12-11T02:37:29.604Z,-0.27
2022-12-11T02:39:33.519Z,-0.29
2022-12-11T02:41:35.251Z,-0.24
2022-12-11T02:43:37.828Z,-0.32
2022-12-11T02:45:41.632Z,-0.26
2022-12-11T02:47:47.858Z,-0.37
2022-12-11T02:49:50.771Z,-0.27
2022-12-11T02:51:54.552Z,-0.22
2022-12-11T02:53:58.927Z,-0.25
2022-12-11T02:56:12.988Z,-0.22
2022-12-11T02:58:19.553Z,-0.23
2022-12-11T03:00:21.844Z,-0.21
2022-12-11T03:02:23.388Z,-0.18
2022-12-11T03:04:24.902Z,-0.16
2022-12-11T03:06:32.870Z,-0.18
2022-12-11T03:08:34.263Z,-0.17
2022-12-11T03:10:41.839Z,-0.17
2022-12-11T03:12:53.042Z,-0.13
2022-12-11T03:26:43.883Z,-0.14
2022-12-11T03:28:56.538Z,-0.09
2022-12-11T03:31:02.958Z,-0.13
2022-12-11T03:33:13.596Z,-0.15
2022-12-11T03:35:25.053Z,-0.11
2022-12-11T03:37:31.298Z,-0.12
2022-12-11T03:39:37.723Z,-0.09
2022-12-11T03:41:41.026Z,-0.09
2022-12-11T03:43:42.805Z,-0.06
2022-12-11T03:45:46.915Z,-0.11
2022-12-11T03:47:50.439Z,-0.08
2022-12-11T03:49:53.719Z,-0.08
2022-12-11T03:51:57.966Z,-0.04
2022-12-11T03:54:00.068Z,-0.04
2022-12-11T03:56:04.264Z,-0.04
2022-12-11T03:58:05.685Z,-0.05
2022-12-11T04:00:10.618Z,-0.05
2022-12-11T04:02:12.152Z,-0.02
2022-12-11T04:04:13.892Z,-0.01
2022-12-11T04:06:15.302Z,-0.03
2022-12-11T04:08:20.681Z,0.01
2022-12-11T04:10:22.124Z,0.02
2022-12-11T04:12:23.671Z,-0.03
2022-12-11T04:14:43.984Z,0.01
2022-12-11T04:16:45.329Z,0.00
2022-12-11T04:19:05.052Z,0.03
2022-12-11T04:21:24.818Z,0.01
2022-12-11T04:23:44.534Z,-0.02
2022-12-11T04:25:50.922Z,-0.02
2022-12-11T04:27:52.951Z,0.01
2022-12-11T04:29:54.318Z,-0.02
2022-12-11T04:31:55.853Z,-0.04
2022-12-11T04:33:57.253Z,-0.01
2022-12-11T04:35:59.707Z,-0.04
2022-12-11T04:38:09.036Z,-0.01
2022-12-11T04:40:13.213Z,0.03
2022-12-11T04:42:14.673Z,0.04
2022-12-11T04:44:16.051Z,-0.06
2022-12-11T04:46:20.674Z,-0.02
2022-12-11T04:48:22.031Z,0.02
2022-12-11T04:50:23.396Z,0.03
2022-12-11T04:52:24.808Z,-0.01
2022-12-11T04:54:26.269Z,-0.02
2022-12-11T04:56:27.697Z,-0.08
2022-12-11T04:58:29.103Z,-0.07
2022-12-11T05:00:30.460Z,-0.02
2022-12-11T05:02:35.115Z,-0.11
2022-12-11T05:04:36.570Z,-0.14
2022-12-11T05:06:37.944Z,-0.05
2022-12-11T05:08:41.435Z,-0.18
2022-12-11T05:10:48.586Z,-0.08
2022-12-11T05:12:51.457Z,-0.07
2022-12-11T05:14:53.551Z,-0.04
2022-12-11T05:16:54.896Z,-0.06
2022-12-11T05:18:56.268Z,-0.02
2022-12-11T05:21:03.165Z,0.02
2022-12-11T05:23:04.559Z,0.04
2022-12-11T05:25:06.653Z,0.04
2022-12-11T05:27:08.029Z,0.07
2022-12-11T05:29:09.596Z,0.03
2022-12-11T05:31:16.972Z,0.06
2022-12-11T05:33:18.389Z,0.07
2022-12-11T05:35:19.788Z,0.06
2022-12-11T05:37:21.288Z,0.07
2022-12-11T05:39:22.675Z,0.03
2022-12-11T05:41:26.070Z,0.05
2022-12-11T05:43:28.987Z,0.05
2022-12-11T05:45:30.361Z,0.07
2022-12-11T05:47:31.809Z,0.07
2022-12-11T05:49:33.179Z,0.06
2022-12-11T05:51:34.995Z,0.11
2022-12-11T05:53:38.182Z,0.12
2022-12-11T05:55:39.516Z,0.13
2022-12-11T05:57:40.987Z,0.12
2022-12-11T05:59:42.369Z,0.14
2022-12-11T06:01:43.803Z,0.14
2022-12-11T06:03:45.639Z,0.17
2022-12-11T06:05:46.993Z,0.14
2022-12-11T06:07:48.398Z,0.15
2022-12-11T06:09:49.793Z,0.18
2022-12-11T06:11:51.142Z,0.16
2022-12-11T06:13:53.128Z,0.17
2022-12-11T06:15:54.635Z,0.15
2022-12-11T06:17:56.072Z,0.16
2022-12-11T06:19:57.476Z,0.16
2022-12-11T06:21:58.815Z,0.17
2022-12-11T06:24:02.365Z,0.18
2022-12-11T06:26:04.138Z,0.19
2022-12-11T06:28:05.505Z,0.20
2022-12-11T06:30:07.980Z,0.17
2022-12-11T06:32:09.387Z,0.21
2022-12-11T06:34:14.086Z,0.19
2022-12-11T06:36:18.667Z,0.15
2022-12-11T06:38:20.065Z,0.17
2022-12-11T06:40:21.560Z,0.19
2022-12-11T06:42:22.940Z,0.17
2022-12-11T06:44:24.982Z,0.15
2022-12-11T06:46:26.353Z,0.15
2022-12-11T06:48:28.582Z,0.18
2022-12-11T06:50:30.039Z,0.20
2022-12-11T06:52:31.519Z,0.16
2022-12-11T06:54:33.051Z,0.18
2022-12-11T06:56:34.843Z,0.17
2022-12-11T06:58:37.411Z,0.17
2022-12-11T07:00:39.112Z,0.19
2022-12-11T07:02:40.660Z,0.18
2022-12-11T07:04:42.446Z,0.16
2022-12-11T07:06:44.273Z,0.15
2022-12-11T07:08:45.701Z,0.12
2022-12-11T07:10:47.077Z,0.14
2022-12-11T07:12:48.516Z,-0.02
2022-12-11T07:14:49.915Z,0.08
2022-12-11T07:16:51.406Z,0.03
2022-12-11T07:18:52.779Z,0.11
2022-12-11T07:20:54.416Z,0.11
2022-12-11T07:22:55.921Z,0.11
2022-12-11T07:24:57.357Z,0.13
2022-12-11T07:26:59.712Z,0.17
2022-12-11T07:29:01.158Z,0.16
2022-12-11T07:31:07.495Z,0.15
2022-12-11T07:33:08.932Z,0.14
2022-12-11T07:35:10.580Z,0.15
2022-12-11T07:37:12.188Z,0.16
2022-12-11T07:39:13.764Z,0.16
2022-12-11T07:41:16.156Z,0.13
2022-12-11T07:43:17.547Z,0.13
2022-12-11T07:45:18.974Z,0.12
2022-12-11T07:47:20.337Z,0.13
2022-12-11T07:49:21.791Z,0.16
2022-12-11T07:51:28.712Z,0.19
2022-12-11T07:53:30.074Z,0.21
2022-12-11T07:55:32.065Z,0.20
2022-12-11T07:57:33.458Z,0.19
2022-12-11T07:59:34.888Z,0.16
2022-12-11T08:01:37.937Z,0.21
2022-12-11T08:03:39.895Z,0.19
2022-12-11T08:05:48.731Z,0.21
2022-12-11T08:07:50.176Z,0.22
2022-12-11T08:09:51.599Z,0.25
2022-12-11T08:11:53.048Z,0.24
2022-12-11T08:13:55.065Z,0.27
2022-12-11T08:15:56.629Z,0.26
2022-12-11T08:17:57.976Z,0.29
2022-12-11T08:19:59.352Z,0.30
2022-12-11T08:22:00.711Z,0.28
2022-12-11T08:24:02.111Z,0.23
2022-12-11T08:26:06.047Z,0.25
2022-12-11T08:28:07.398Z,0.29
2022-12-11T08:30:09.772Z,0.31
2022-12-11T08:32:13.559Z,0.33
2022-12-11T08:34:14.952Z,0.33
2022-12-11T08:36:20.662Z,0.35
2022-12-11T08:38:25.346Z,0.37
2022-12-11T08:40:27.089Z,0.32
2022-12-11T08:42:28.488Z,0.32
2022-12-11T08:44:30.035Z,0.34
2022-12-11T08:46:32.467Z,0.33
2022-12-11T08:48:35.454Z,0.35
2022-12-11T08:50:37.586Z,0.35
2022-12-11T08:52:38.992Z,0.36
2022-12-11T08:54:40.462Z,0.35
2022-12-11T08:56:41.852Z,0.32
2022-12-11T08:58:44.340Z,0.33
2022-12-11T09:00:45.680Z,0.37
2022-12-11T09:02:48.096Z,0.40
2022-12-11T09:04:50.458Z,0.37
2022-12-11T09:06:52.008Z,0.35
2022-12-11T09:08:53.902Z,0.38
2022-12-11T09:10:55.259Z,0.36
2022-12-11T09:12:56.621Z,0.37
2022-12-11T09:14:57.963Z,0.36
2022-12-11T09:16:59.366Z,0.41
2022-12-11T09:19:00.699Z,0.37
2022-12-11T09:21:05.404Z,0.30
2022-12-11T09:23:06.807Z,0.39
2022-12-11T09:25:09.768Z,0.37
2022-12-11T09:27:11.275Z,0.41
2022-12-11T09:29:13.170Z,0.39
2022-12-11T09:31:17.870Z,0.40
2022-12-11T09:33:19.475Z,0.38
2022-12-11T09:35:20.840Z,0.42
2022-12-11T09:37:22.286Z,0.29
2022-12-11T09:39:24.582Z,0.39
2022-12-11T09:41:40.310Z,0.37
2022-12-11T09:43:49.583Z,0.30
2022-12-11T09:45:51.290Z,0.34
2022-12-11T09:47:56.167Z,0.39
2022-12-11T09:50:09.615Z,0.38
2022-12-11T09:52:17.187Z,0.31
2022-12-11T09:54:18.618Z,0.38
2022-12-11T09:56:20.035Z,0.35
2022-12-11T09:58:31.711Z,0.43
2022-12-11T10:00:41.467Z,0.43
2022-12-11T10:03:10.399Z,0.44
2022-12-11T10:05:35.509Z,0.48
2022-12-11T10:07:46.201Z,0.38
2022-12-11T10:10:23.255Z,0.43
2022-12-11T10:12:48.247Z,0.47
2022-12-11T10:15:20.494Z,0.53
2022-12-11T10:17:31.076Z,0.57
2022-12-11T10:19:33.038Z,0.59
2022-12-11T10:21:41.544Z,0.57
2022-12-11T10:23:53.659Z,0.57
2022-12-11T10:26:15.976Z,0.61
2022-12-11T10:28:20.436Z,0.56
2022-12-11T10:30:37.464Z,0.60
2022-12-11T10:32:53.343Z,0.65
2022-12-11T10:35:03.953Z,0.67
2022-12-11T10:37:05.431Z,0.65
2022-12-11T10:39:16.013Z,0.68
2022-12-11T10:41:20.951Z,0.73
2022-12-11T10:43:33.615Z,0.75
2022-12-11T10:45:35.082Z,0.75
2022-12-11T10:47:36.483Z,0.72
2022-12-11T10:49:42.766Z,0.66
2022-12-11T10:51:44.481Z,0.71
2022-12-11T10:53:51.527Z,0.70
2022-12-11T10:55:53.613Z,0.70
2022-12-11T10:58:02.752Z,0.72
2022-12-11T11:00:07.362Z,0.75
2022-12-11T11:02:40.521Z,0.71
2022-12-11T11:04:44.736Z,0.69
2022-12-11T11:06:46.170Z,0.70
2022-12-11T11:08:53.852Z,0.73
2022-12-11T11:10:58.195Z,0.74
2022-12-11T11:13:03.021Z,0.74
2022-12-11T11:15:15.146Z,0.72
2022-12-11T11:17:17.554Z,0.74
2022-12-11T11:19:29.435Z,0.74
2022-12-11T11:21:32.428Z,0.72
2022-12-11T11:23:34.483Z,0.70
2022-12-11T11:25:35.936Z,0.69
2022-12-11T11:27:45.751Z,0.70
2022-12-11T11:29:51.660Z,0.66
2022-12-11T11:31:54.794Z,0.71
2022-12-11T11:33:58.760Z,0.65
2022-12-11T11:36:05.965Z,0.71
2022-12-11T11:38:18.459Z,0.75
2022-12-11T11:40:30.357Z,0.74
2022-12-11T11:42:47.223Z,0.70
2022-12-11T11:45:05.240Z,0.73
2022-12-11T11:47:24.220Z,0.69
2022-12-11T11:49:50.296Z,0.74
2022-12-11T11:52:01.058Z,0.71
2022-12-11T11:54:20.711Z,0.76
2022-12-11T11:56:35.003Z,0.75
2022-12-11T11:58:47.972Z,0.77
2022-12-11T12:00:50.189Z,0.73
2022-12-11T12:02:56.204Z,0.75
2022-12-11T12:04:57.649Z,0.77
2022-12-11T12:07:04.676Z,0.80
2022-12-11T12:09:26.589Z,0.82
2022-12-11T12:11:49.588Z,0.76
2022-12-11T12:14:02.456Z,0.82
2022-12-11T12:16:22.919Z,0.82
2022-12-11T12:19:08.391Z,0.80
2022-12-11T12:21:36.950Z,0.81
2022-12-11T12:23:50.188Z,0.82
2022-12-11T12:26:08.842Z,0.76
2022-12-11T12:28:28.978Z,0.82
2022-12-11T12:30:46.727Z,0.82
2022-12-11T12:32:56.905Z,0.84
2022-12-11T12:35:12.755Z,0.88
2022-12-11T12:37:48.514Z,0.89
2022-12-11T12:40:08.517Z,0.81
2022-12-11T12:42:25.149Z,0.82
2022-12-11T12:44:35.094Z,0.82
2022-12-11T12:47:00.991Z,0.75
2022-12-11T12:49:04.872Z,0.75
2022-12-11T12:51:06.819Z,0.77
2022-12-11T12:53:13.466Z,0.66
2022-12-11T12:55:31.721Z,0.75
2022-12-11T12:57:34.983Z,0.79
2022-12-11T12:59:36.400Z,0.82
2022-12-11T13:01:38.656Z,0.82
2022-12-11T13:04:47.437Z,0.82
2022-12-11T13:06:47.565Z,0.86
2022-12-11T13:08:51.700Z,0.81
2022-12-11T13:11:03.604Z,0.83
2022-12-11T13:13:06.603Z,0.81
2022-12-11T13:15:32.018Z,0.84
2022-12-11T13:17:38.169Z,0.85
2022-12-11T13:19:42.730Z,0.77
2022-12-11T13:21:59.876Z,0.81
2022-12-11T13:24:28.401Z,0.86
2022-12-11T13:26:31.899Z,0.85
2022-12-11T13:28:54.029Z,0.88
2022-12-11T13:31:01.459Z,0.85
2022-12-11T13:33:14.838Z,0.85
2022-12-11T13:35:18.248Z,0.85
2022-12-11T13:37:41.119Z,0.91
2022-12-11T13:39:47.095Z,0.83
2022-12-11T13:41:55.185Z,0.90
2022-12-11T13:43:57.869Z,0.85
2022-12-11T13:46:02.976Z,0.91
2022-12-11T13:48:16.987Z,0.91
2022-12-11T13:50:24.928Z,0.89
2022-12-11T13:52:27.601Z,0.92
2022-12-11T13:54:31.904Z,0.91
2022-12-11T13:56:34.284Z,0.86
2022-12-11T13:58:38.807Z,0.89
2022-12-11T14:00:40.477Z,0.92
2022-12-11T14:02:42.618Z,0.90
2022-12-11T14:04:44.877Z,0.91
2022-12-11T14:06:46.370Z,0.84
2022-12-11T14:08:51.568Z,0.89
2022-12-11T14:10:54.315Z,0.91
2022-12-11T14:13:21.948Z,0.88
2022-12-11T14:15:23.706Z,0.91
2022-12-11T14:17:27.812Z,0.90
2022-12-11T14:19:29.394Z,0.88
2022-12-11T14:21:30.805Z,0.91
2022-12-11T14:23:36.570Z,0.92
2022-12-11T14:25:37.944Z,0.85
2022-12-11T14:27:50.890Z,0.87
2022-12-11T14:29:52.699Z,0.84
2022-12-11T14:31:54.895Z,0.86
2022-12-11T14:34:03.028Z,0.88
2022-12-11T14:36:06.412Z,0.88
2022-12-11T14:38:16.635Z,0.85
2022-12-11T14:40:22.911Z,0.83
2022-12-11T14:42:32.436Z,0.85
2022-12-11T14:44:56.486Z,0.85
2022-12-11T14:47:03.520Z,0.85
2022-12-11T14:49:26.041Z,0.81
2022-12-11T14:51:33.526Z,0.80
2022-12-11T14:53:51.044Z,0.77
2022-12-11T14:55:53.096Z,0.81
2022-12-11T14:58:02.557Z,0.79
2022-12-11T15:00:05.194Z,0.79
2022-12-11T15:02:29.932Z,0.78
2022-12-11T15:04:33.237Z,0.78
2022-12-11T15:06:43.987Z,0.76
2022-12-11T15:08:45.501Z,0.75
2022-12-11T15:11:10.337Z,0.78
2022-12-11T15:13:13.863Z,0.75
2022-12-11T15:15:17.195Z,0.74
2022-12-11T15:17:23.547Z,0.74
2022-12-11T15:19:30.587Z,0.73
2022-12-11T15:21:36.207Z,0.66
2022-12-11T15:23:59.886Z,0.68
2022-12-11T15:26:02.613Z,0.74
2022-12-11T15:28:04.204Z,0.71
2022-12-11T15:30:20.005Z,0.67
2022-12-11T15:32:21.833Z,0.66
2022-12-11T15:34:23.479Z,0.65
2022-12-11T15:36:31.254Z,0.66
2022-12-11T15:38:42.092Z,0.67
2022-12-11T15:40:43.445Z,0.66
2022-12-11T15:42:45.192Z,0.67
2022-12-11T15:44:46.638Z,0.64
2022-12-11T15:46:48.030Z,0.64
2022-12-11T15:48:50.192Z,0.64
2022-12-11T15:51:17.054Z,0.65
2022-12-11T15:53:18.423Z,0.66
2022-12-11T15:55:21.184Z,0.63
2022-12-11T15:57:24.521Z,0.65
2022-12-11T15:59:26.112Z,0.64
2022-12-11T16:01:27.589Z,0.67
2022-12-11T16:03:29.081Z,0.63
2022-12-11T16:05:30.470Z,0.61
2022-12-11T16:07:32.596Z,0.61
2022-12-11T16:09:34.549Z,0.63
2022-12-11T16:11:35.912Z,0.64
2022-12-11T16:13:37.299Z,0.63
2022-12-11T16:15:41.372Z,0.65
2022-12-11T16:17:42.950Z,0.64
2022-12-11T16:19:44.600Z,0.61
2022-12-11T16:21:45.966Z,0.63
2022-12-11T16:23:47.363Z,0.63
2022-12-11T16:25:52.189Z,0.57
2022-12-11T16:28:02.455Z,0.57
2022-12-11T16:30:05.036Z,0.61
2022-12-11T16:32:08.239Z,0.62
2022-12-11T16:34:09.687Z,0.61
2022-12-11T16:36:15.815Z,0.61
2022-12-11T16:38:17.251Z,0.61
2022-12-11T16:40:19.177Z,0.56
2022-12-11T16:42:20.575Z,0.59
2022-12-11T16:44:24.351Z,0.62
2022-12-11T16:46:25.876Z,0.61
2022-12-11T16:48:27.396Z,0.63
2022-12-11T16:50:28.762Z,0.63
2022-12-11T16:52:31.969Z,0.62
2022-12-11T16:54:33.325Z,0.63
2022-12-11T16:56:34.862Z,0.65
2022-12-11T16:58:36.285Z,0.64
2022-12-11T17:00:38.226Z,0.59
2022-12-11T17:02:39.868Z,0.61
2022-12-11T17:04:41.939Z,0.59
2022-12-11T17:06:46.729Z,0.60
2022-12-11T17:08:48.224Z,0.61
2022-12-11T17:10:51.151Z,0.61
2022-12-11T17:12:52.535Z,0.59
2022-12-11T17:14:54.827Z,0.59
2022-12-11T17:16:56.654Z,0.60
2022-12-11T17:18:58.148Z,0.60
2022-12-11T17:21:00.281Z,0.59
2022-12-11T17:23:01.678Z,0.59
2022-12-11T17:25:03.543Z,0.57
2022-12-11T17:27:04.892Z,0.57
2022-12-11T17:29:06.605Z,0.59
2022-12-11T17:31:12.281Z,0.61
2022-12-11T17:33:13.703Z,0.61
2022-12-11T17:35:15.076Z,0.61
2022-12-11T17:37:17.295Z,0.62
2022-12-11T17:39:18.761Z,0.61
2022-12-11T17:41:21.752Z,0.64
2022-12-11T17:43:23.197Z,0.59
2022-12-11T17:45:24.706Z,0.59
2022-12-11T17:47:26.159Z,0.61
2022-12-11T17:49:27.624Z,0.63
2022-12-11T17:51:29.014Z,0.61
2022-12-11T17:53:30.392Z,0.63
2022-12-11T17:55:32.503Z,0.63
2022-12-11T17:57:34.363Z,0.64
2022-12-11T17:59:35.729Z,0.64
2022-12-11T18:01:37.525Z,0.65
2022-12-11T18:03:40.196Z,0.65
2022-12-11T18:05:45.222Z,0.65
2022-12-11T18:07:46.649Z,0.63
2022-12-11T18:09:48.035Z,0.64
2022-12-11T18:11:49.430Z,0.63
2022-12-11T18:13:52.363Z,0.65
2022-12-11T18:16:02.929Z,0.64
2022-12-11T18:18:04.962Z,0.62
2022-12-11T18:20:06.852Z,0.61
2022-12-11T18:22:08.190Z,0.63
2022-12-11T18:24:10.339Z,0.64
2022-12-11T18:26:14.338Z,0.62
2022-12-11T18:28:15.732Z,0.61
2022-12-11T18:30:17.504Z,0.60
2022-12-11T18:32:18.912Z,0.60
2022-12-11T18:34:20.273Z,0.61
2022-12-11T18:36:21.912Z,0.59
2022-12-11T18:38:23.900Z,0.59
2022-12-11T18:40:25.282Z,0.57
2022-12-11T18:42:34.888Z,0.54
2022-12-11T18:44:36.296Z,0.59
2022-12-11T18:46:39.414Z,0.59
2022-12-11T18:48:42.399Z,0.58
2022-12-11T18:50:48.516Z,0.56
2022-12-11T18:52:53.904Z,0.58
2022-12-11T18:54:55.312Z,0.60
2022-12-11T18:56:56.707Z,0.60
2022-12-11T18:58:58.100Z,0.61
2022-12-11T19:00:59.594Z,0.61
2022-12-11T19:03:02.001Z,0.60
2022-12-11T19:05:03.628Z,0.63
2022-12-11T19:07:04.958Z,0.60
2022-12-11T19:09:08.975Z,0.59
2022-12-11T19:11:14.712Z,0.62
2022-12-11T19:13:16.145Z,0.61
2022-12-11T19:15:23.985Z,0.60
2022-12-11T19:17:25.708Z,0.59
2022-12-11T19:19:27.095Z,0.60
2022-12-11T19:21:28.581Z,0.55
2022-12-11T19:23:29.982Z,0.59
2022-12-11T19:25:32.336Z,0.60
2022-12-11T19:27:33.760Z,0.58
2022-12-11T19:29:35.158Z,0.60
2022-12-11T19:31:36.624Z,0.60
2022-12-11T19:33:39.738Z,0.59
2022-12-11T19:35:41.589Z,0.60
2022-12-11T19:37:43.139Z,0.59
2022-12-11T19:39:44.532Z,0.59
2022-12-11T19:41:46.374Z,0.60
2022-12-11T19:43:47.849Z,0.60
2022-12-11T19:45:49.522Z,0.60
2022-12-11T19:47:50.969Z,0.58
2022-12-11T19:49:52.326Z,0.60
2022-12-11T19:51:53.694Z,0.60
2022-12-11T19:53:55.808Z,0.58
2022-12-11T19:55:57.167Z,0.55
2022-12-11T19:57:58.738Z,0.56
2022-12-11T20:00:01.068Z,0.58
2022-12-11T20:02:02.451Z,0.57
2022-12-11T20:04:08.107Z,0.58
2022-12-11T20:06:10.002Z,0.57
2022-12-11T20:08:43.091Z,0.57
2022-12-11T20:10:36.603Z,0.58
2022-12-11T20:12:38.227Z,0.52
2022-12-11T20:14:39.652Z,0.49
2022-12-11T20:19:02.801Z,0.51
2022-12-11T20:21:07.720Z,0.51
2022-12-11T20:23:09.508Z,0.52
2022-12-11T20:25:11.332Z,0.52
2022-12-11T20:27:12.867Z,0.48
2022-12-11T20:29:14.906Z,0.49
2022-12-11T20:31:20.531Z,0.52
2022-12-11T20:33:22.359Z,0.49
2022-12-11T20:35:26.267Z,0.50
2022-12-11T20:37:28.962Z,0.48
2022-12-11T20:39:31.880Z,0.49
2022-12-11T20:41:33.421Z,0.51
2022-12-11T20:43:34.803Z,0.51
2022-12-11T20:45:36.199Z,0.48
2022-12-11T20:47:37.608Z,0.47
2022-12-11T20:49:39.256Z,0.51
2022-12-11T20:51:40.968Z,0.48
2022-12-11T20:53:42.946Z,0.51
2022-12-11T20:55:44.746Z,0.49
2022-12-11T20:57:46.083Z,0.47
2022-12-11T20:59:49.037Z,0.47
2022-12-11T21:01:50.579Z,0.45
2022-12-11T21:03:53.381Z,0.46
2022-12-11T21:05:54.814Z,0.45
2022-12-11T21:07:56.579Z,0.48
2022-12-11T21:09:57.946Z,0.46
2022-12-11T21:12:01.492Z,0.43
2022-12-11T21:14:03.392Z,0.48
2022-12-11T21:16:07.103Z,0.46
2022-12-11T21:18:08.926Z,0.46
2022-12-11T21:20:10.620Z,0.47
2022-12-11T21:22:12.179Z,0.47
2022-12-11T21:24:26.477Z,0.51
2022-12-11T21:26:27.900Z,0.56
2022-12-11T21:28:35.029Z,0.53
2022-12-11T21:30:40.052Z,0.50
2022-12-11T21:32:41.458Z,0.50
2022-12-11T21:34:42.839Z,0.45
2022-12-11T21:36:45.025Z,0.44
2022-12-11T21:38:47.515Z,0.45
2022-12-11T21:40:49.177Z,0.46
2022-12-11T21:42:50.555Z,0.42
2022-12-11T21:47:13.343Z,0.44
2022-12-11T21:49:14.721Z,0.44
2022-12-11T21:51:34.078Z,0.42
2022-12-11T21:53:38.271Z,0.42
2022-12-11T21:55:41.358Z,0.45
2022-12-11T21:57:42.725Z,0.42
2022-12-11T21:59:44.188Z,0.43
2022-12-11T22:01:46.167Z,0.43
2022-12-11T22:03:48.882Z,0.44
2022-12-11T22:05:50.320Z,0.46
2022-12-11T22:07:51.760Z,0.46
2022-12-11T22:09:53.167Z,0.45
2022-12-11T22:11:58.334Z,0.41
2022-12-11T22:14:00.522Z,0.41
2022-12-11T22:16:01.894Z,0.37
2022-12-11T22:18:03.900Z,0.42
2022-12-11T22:20:06.022Z,0.41
2022-12-11T22:22:07.403Z,0.43
2022-12-11T22:24:09.118Z,0.43
2022-12-11T22:26:23.032Z,0.45
2022-12-11T22:28:24.835Z,0.41
2022-12-11T22:30:26.308Z,0.34
2022-12-11T22:32:27.790Z,0.34
2022-12-11T22:34:29.560Z,0.37
2022-12-11T22:36:30.953Z,0.38
2022-12-11T22:38:33.563Z,0.40
2022-12-11T22:40:39.870Z,0.38
2022-12-11T22:42:41.283Z,0.38
2022-12-11T22:44:42.677Z,0.33
2022-12-11T22:46:49.737Z,0.29
2022-12-11T22:48:52.069Z,0.34
2022-12-11T22:50:53.458Z,0.33
2022-12-11T22:52:54.851Z,0.33
2022-12-11T22:54:56.423Z,0.35
2022-12-11T22:56:57.929Z,0.34
2022-12-11T22:58:59.463Z,0.30
2022-12-11T23:01:01.617Z,0.31
2022-12-11T23:03:03.789Z,0.29
2022-12-11T23:05:06.382Z,0.33
2022-12-11T23:07:08.109Z,0.34
2022-12-11T23:09:10.826Z,0.35
2022-12-11T23:11:13.200Z,0.34
2022-12-11T23:13:14.724Z,0.32
2022-12-11T23:15:16.500Z,0.32
2022-12-11T23:17:17.872Z,0.34
2022-12-11T23:19:25.291Z,0.35
2022-12-11T23:21:28.063Z,0.35
2022-12-11T23:23:29.547Z,0.34
2022-12-11T23:25:30.920Z,0.35
2022-12-11T23:27:32.360Z,0.31
2022-12-11T23:29:33.788Z,0.23
2022-12-11T23:31:35.640Z,0.28
2022-12-11T23:33:37.370Z,0.31
2022-12-11T23:35:38.771Z,0.29
2022-12-11T23:37:40.148Z,0.31
2022-12-11T23:39:41.548Z,0.33
2022-12-11T23:41:43.207Z,0.35
2022-12-11T23:43:44.614Z,0.30
2022-12-11T23:45:46.647Z,0.32
2022-12-11T23:47:48.088Z,0.30
2022-12-11T23:49:49.493Z,0.32
2022-12-11T23:51:50.908Z,0.29
2022-12-11T23:53:53.094Z,0.31
2022-12-11T23:55:55.277Z,0.32
2022-12-11T23:57:56.640Z,0.30
2022-12-11T23:59:57.980Z,0.30
